createdAt,value
2023-07-14T00:01:28.020Z,100.00
2023-07-14T00:03:58.941Z,100.00
2023-07-14T00:06:27.303Z,100.00
2023-07-14T00:08:56.099Z,100.00
2023-07-14T00:11:26.193Z,100.00
2023-07-14T00:13:55.721Z,100.00
2023-07-14T00:16:27.490Z,100.00
2023-07-14T00:18:57.529Z,100.00
2023-07-14T00:21:28.065Z,100.00
2023-07-14T00:23:59.712Z,100.00
2023-07-14T00:26:28.732Z,100.00
2023-07-14T00:28:57.172Z,100.00
2023-07-14T00:31:25.541Z,100.00
2023-07-14T00:33:55.449Z,100.00
2023-07-14T00:36:25.348Z,100.00
2023-07-14T00:38:53.701Z,100.00
2023-07-14T00:41:24.987Z,100.00
2023-07-14T00:43:53.914Z,100.00
2023-07-14T00:46:28.455Z,100.00
2023-07-14T00:48:59.661Z,100.00
2023-07-14T00:51:31.057Z,100.00
2023-07-14T00:53:59.937Z,100.00
2023-07-14T00:56:36.344Z,100.00
2023-07-14T00:59:07.340Z,100.00
2023-07-14T01:01:35.729Z,100.00
2023-07-14T01:04:04.267Z,100.00
2023-07-14T01:06:36.393Z,100.00
2023-07-14T01:09:09.935Z,100.00
2023-07-14T01:11:40.563Z,100.00
2023-07-14T01:14:11.794Z,100.00
2023-07-14T01:16:41.424Z,100.00
2023-07-14T01:19:12.886Z,100.00
2023-07-14T01:21:43.600Z,100.00
2023-07-14T01:24:17.071Z,100.00
2023-07-14T01:26:57.464Z,100.00
2023-07-14T01:29:26.234Z,100.00
2023-07-14T01:31:55.343Z,100.00
2023-07-14T01:34:23.997Z,100.00
2023-07-14T01:36:57.974Z,100.00
2023-07-14T01:39:26.937Z,100.00
2023-07-14T01:41:56.817Z,100.00
2023-07-14T01:44:25.844Z,100.00
2023-07-14T01:46:55.139Z,100.00
2023-07-14T01:49:40.141Z,100.00
2023-07-14T01:52:14.506Z,100.00
2023-07-14T01:54:46.936Z,100.00
2023-07-14T01:57:19.748Z,100.00
2023-07-14T01:59:50.742Z,100.00
2023-07-14T02:02:25.346Z,100.00
2023-07-14T02:04:54.247Z,100.00
2023-07-14T02:07:22.622Z,100.00
2023-07-14T02:09:51.492Z,100.00
2023-07-14T02:12:28.605Z,100.00
2023-07-14T02:15:00.425Z,100.00
2023-07-14T02:17:32.501Z,100.00
2023-07-14T02:20:22.985Z,100.00
2023-07-14T02:22:52.403Z,100.00
2023-07-14T02:25:21.787Z,100.00
2023-07-14T02:27:51.700Z,100.00
2023-07-14T02:30:22.737Z,100.00
2023-07-14T02:32:53.671Z,100.00
2023-07-14T02:35:25.958Z,100.00
2023-07-14T02:38:05.578Z,100.00
2023-07-14T02:40:38.551Z,100.00
2023-07-14T02:43:10.192Z,100.00
2023-07-14T02:45:43.855Z,100.00
2023-07-14T02:48:15.473Z,100.00
2023-07-14T02:50:44.167Z,100.00
2023-07-14T02:53:12.734Z,100.00
2023-07-14T02:55:42.373Z,100.00
2023-07-14T02:58:12.495Z,100.00
2023-07-14T03:00:40.870Z,100.00
2023-07-14T03:03:09.469Z,100.00
2023-07-14T03:05:38.182Z,100.00
2023-07-14T03:08:09.095Z,100.00
2023-07-14T03:10:37.517Z,100.00
2023-07-14T03:13:06.105Z,100.00
2023-07-14T03:15:35.897Z,100.00
2023-07-14T03:18:04.381Z,100.00
2023-07-14T03:20:33.420Z,100.00
2023-07-14T03:23:01.951Z,100.00
2023-07-14T03:25:30.339Z,100.00
2023-07-14T03:27:58.822Z,100.00
2023-07-14T03:30:27.729Z,100.00
2023-07-14T03:32:57.540Z,100.00
2023-07-14T03:35:26.222Z,100.00
2023-07-14T03:37:54.642Z,100.00
2023-07-14T03:40:23.098Z,100.00
2023-07-14T03:42:51.593Z,100.00
2023-07-14T03:45:20.024Z,100.00
2023-07-14T03:47:48.587Z,100.00
2023-07-14T03:50:18.696Z,100.00
2023-07-14T03:52:47.603Z,100.00
2023-07-14T03:55:16.210Z,100.00
2023-07-14T03:58:00.754Z,100.00
2023-07-14T04:00:32.279Z,100.00
2023-07-14T04:03:01.488Z,100.00
2023-07-14T04:05:31.333Z,100.00
2023-07-14T04:08:00.083Z,100.00
2023-07-14T04:10:28.602Z,100.00
2023-07-14T04:12:58.915Z,100.00
2023-07-14T04:15:27.273Z,100.00
2023-07-14T04:17:55.864Z,100.00
2023-07-14T04:20:24.253Z,100.00
2023-07-14T04:22:55.162Z,100.00
2023-07-14T04:25:23.797Z,100.00
2023-07-14T04:27:53.885Z,100.00
2023-07-14T04:30:22.702Z,100.00
2023-07-14T04:32:53.487Z,100.00
2023-07-14T04:35:21.929Z,100.00
2023-07-14T04:37:50.281Z,100.00
2023-07-14T04:40:35.888Z,100.00
2023-07-14T04:43:05.333Z,100.00
2023-07-14T04:45:33.877Z,100.00
2023-07-14T04:48:02.336Z,100.00
2023-07-14T04:50:30.809Z,100.00
2023-07-14T04:53:00.319Z,100.00
2023-07-14T04:55:30.166Z,100.00
2023-07-14T04:57:58.857Z,100.00
2023-07-14T05:00:27.566Z,100.00
2023-07-14T05:02:57.572Z,100.00
2023-07-14T05:05:27.773Z,100.00
2023-07-14T05:07:56.840Z,100.00
2023-07-14T05:10:26.930Z,100.00
2023-07-14T05:12:58.328Z,100.00
2023-07-14T05:15:27.664Z,100.00
2023-07-14T05:17:56.867Z,100.00
2023-07-14T05:20:26.192Z,100.00
2023-07-14T05:22:55.731Z,100.00
2023-07-14T05:25:24.630Z,100.00
2023-07-14T05:27:53.280Z,100.00
2023-07-14T05:30:23.728Z,100.00
2023-07-14T05:32:52.379Z,100.00
2023-07-14T05:35:21.544Z,100.00
2023-07-14T05:37:49.952Z,100.00
2023-07-14T05:40:19.245Z,100.00
2023-07-14T05:42:49.129Z,100.00
2023-07-14T05:45:18.233Z,100.00
2023-07-14T05:47:49.353Z,100.00
2023-07-14T05:50:18.983Z,100.00
2023-07-14T05:52:47.709Z,100.00
2023-07-14T05:55:16.934Z,100.00
2023-07-14T05:57:46.322Z,100.00
2023-07-14T06:00:18.350Z,100.00
2023-07-14T06:02:51.504Z,100.00
2023-07-14T06:05:20.870Z,100.00
2023-07-14T06:07:49.923Z,100.00
2023-07-14T06:10:19.029Z,100.00
2023-07-14T06:12:47.548Z,100.00
2023-07-14T06:15:16.597Z,100.00
2023-07-14T06:17:45.272Z,100.00
2023-07-14T06:20:15.314Z,100.00
2023-07-14T06:22:43.844Z,99.11
2023-07-14T06:25:12.361Z,97.03
2023-07-14T06:27:40.871Z,98.93
2023-07-14T06:30:10.801Z,99.94
2023-07-14T06:32:40.369Z,98.99
2023-07-14T06:35:11.603Z,97.49
2023-07-14T06:37:42.400Z,94.74
2023-07-14T06:40:12.901Z,96.45
2023-07-14T06:42:41.287Z,95.08
2023-07-14T06:45:10.721Z,95.45
2023-07-14T06:47:39.266Z,93.47
2023-07-14T06:50:08.517Z,93.26
2023-07-14T06:52:39.301Z,93.07
2023-07-14T06:55:10.911Z,95.40
2023-07-14T06:57:39.567Z,94.62
2023-07-14T07:00:12.333Z,93.29
2023-07-14T07:02:41.272Z,92.13
2023-07-14T07:05:11.937Z,94.72
2023-07-14T07:07:40.445Z,93.32
2023-07-14T07:10:11.596Z,92.54
2023-07-14T07:12:40.685Z,93.80
2023-07-14T07:15:09.872Z,91.51
2023-07-14T07:17:40.158Z,88.94
2023-07-14T07:20:10.663Z,89.95
2023-07-14T07:22:39.353Z,91.49
2023-07-14T07:25:08.825Z,90.12
2023-07-14T07:27:38.795Z,89.63
2023-07-14T07:30:10.562Z,90.33
2023-07-14T07:32:41.574Z,90.30
2023-07-14T07:35:11.484Z,93.91
2023-07-14T07:37:40.268Z,93.24
2023-07-14T07:40:10.553Z,95.73
2023-07-14T07:42:41.816Z,95.10
2023-07-14T07:45:11.046Z,96.97
2023-07-14T07:47:39.667Z,98.27
2023-07-14T07:50:09.920Z,96.66
2023-07-14T07:52:38.476Z,95.60
2023-07-14T07:55:07.285Z,95.78
2023-07-14T07:57:35.811Z,95.70
2023-07-14T08:00:07.917Z,91.96
2023-07-14T08:02:37.578Z,88.49
2023-07-14T08:05:07.039Z,87.99
2023-07-14T08:07:36.154Z,86.18
2023-07-14T08:10:04.735Z,85.68
2023-07-14T08:12:33.315Z,82.23
2023-07-14T08:15:02.120Z,79.61
2023-07-14T08:17:55.350Z,81.46
2023-07-14T08:20:24.724Z,80.05
2023-07-14T08:22:53.201Z,81.16
2023-07-14T08:25:23.047Z,82.21
2023-07-14T08:27:52.040Z,81.68
2023-07-14T08:30:21.727Z,78.97
2023-07-14T08:32:52.140Z,81.28
2023-07-14T08:35:21.709Z,84.10
2023-07-14T08:37:51.107Z,83.65
2023-07-14T08:40:27.362Z,84.32
2023-07-14T08:43:21.894Z,86.20
2023-07-14T08:45:56.598Z,88.48
2023-07-14T08:48:35.664Z,89.87
2023-07-14T08:51:09.648Z,88.77
2023-07-14T08:53:38.264Z,89.30
2023-07-14T08:56:08.153Z,88.93
2023-07-14T08:58:41.090Z,90.31
2023-07-14T09:01:14.827Z,87.37
2023-07-14T09:03:47.463Z,87.73
2023-07-14T09:06:25.542Z,89.19
2023-07-14T09:08:55.948Z,90.19
2023-07-14T09:11:45.137Z,91.48
2023-07-14T09:14:31.975Z,90.70
2023-07-14T09:17:06.444Z,90.35
2023-07-14T09:19:46.754Z,90.77
2023-07-14T09:22:21.129Z,89.48
2023-07-14T09:24:57.997Z,89.63
2023-07-14T09:27:29.213Z,88.62
2023-07-14T09:29:58.435Z,87.69
2023-07-14T09:32:35.768Z,89.28
2023-07-14T09:35:15.279Z,87.95
2023-07-14T09:37:49.249Z,84.68
2023-07-14T09:40:21.070Z,84.17
2023-07-14T09:42:52.432Z,81.00
2023-07-14T09:45:23.357Z,80.88
2023-07-14T09:47:57.952Z,80.73
2023-07-14T09:50:28.756Z,78.33
2023-07-14T09:52:59.525Z,79.58
2023-07-14T09:55:28.180Z,80.15
2023-07-14T09:58:10.964Z,80.43
2023-07-14T10:00:42.907Z,81.66
2023-07-14T10:03:22.809Z,81.26
2023-07-14T10:05:58.832Z,83.40
2023-07-14T10:08:30.535Z,83.36
2023-07-14T10:11:01.178Z,82.86
2023-07-14T10:13:32.982Z,83.22
2023-07-14T10:16:09.048Z,82.76
2023-07-14T10:18:49.185Z,82.24
2023-07-14T10:21:25.113Z,83.75
2023-07-14T10:24:01.163Z,82.72
2023-07-14T10:26:31.727Z,84.86
2023-07-14T10:29:01.141Z,83.68
2023-07-14T10:31:39.081Z,84.48
2023-07-14T10:34:23.339Z,85.26
2023-07-14T10:36:55.023Z,84.64
2023-07-14T10:39:32.672Z,85.82
2023-07-14T10:42:02.395Z,86.26
2023-07-14T10:44:33.646Z,86.10
2023-07-14T10:47:04.929Z,85.69
2023-07-14T10:49:37.583Z,84.04
2023-07-14T10:52:12.934Z,83.64
2023-07-14T10:54:48.075Z,82.55
2023-07-14T10:57:34.389Z,82.60
2023-07-14T11:00:16.123Z,82.63
2023-07-14T11:02:48.048Z,83.41
2023-07-14T11:05:19.660Z,83.38
2023-07-14T11:07:49.629Z,84.35
2023-07-14T11:10:28.023Z,86.02
2023-07-14T11:13:04.953Z,87.23
2023-07-14T11:15:41.496Z,88.81
2023-07-14T11:18:20.222Z,89.03
2023-07-14T11:20:54.054Z,90.06
2023-07-14T11:23:27.686Z,90.97
2023-07-14T11:26:00.278Z,91.18
2023-07-14T11:28:38.517Z,90.30
2023-07-14T11:31:21.397Z,90.13
2023-07-14T11:33:55.809Z,90.94
2023-07-14T11:36:28.896Z,89.72
2023-07-14T11:38:59.581Z,89.31
2023-07-14T11:41:28.720Z,88.86
2023-07-14T11:43:57.875Z,89.08
2023-07-14T11:46:27.361Z,89.37
2023-07-14T11:49:06.257Z,91.62
2023-07-14T11:51:49.834Z,89.77
2023-07-14T11:54:21.618Z,89.17
2023-07-14T11:57:01.639Z,90.64
2023-07-14T11:59:31.584Z,90.31
2023-07-14T12:02:27.019Z,89.88
2023-07-14T12:05:05.819Z,89.70
2023-07-14T12:07:37.057Z,89.61
2023-07-14T12:10:14.874Z,91.08
2023-07-14T12:12:45.300Z,93.39
2023-07-14T12:15:44.525Z,95.06
2023-07-14T12:18:32.001Z,94.82
2023-07-14T12:21:23.473Z,95.07
2023-07-14T12:23:55.118Z,97.46
2023-07-14T12:26:34.360Z,95.12
2023-07-14T12:29:04.352Z,95.40
2023-07-14T12:31:36.978Z,93.96
2023-07-14T12:34:05.674Z,94.37
2023-07-14T12:36:34.417Z,93.94
2023-07-14T12:39:05.809Z,92.74
2023-07-14T12:41:38.541Z,90.31
2023-07-14T12:44:07.277Z,88.69
2023-07-14T12:46:37.778Z,87.97
2023-07-14T12:49:19.497Z,87.35
2023-07-14T12:51:48.129Z,83.91
2023-07-14T12:54:20.044Z,83.74
2023-07-14T12:56:49.907Z,82.88
2023-07-14T12:59:19.832Z,82.54
2023-07-14T13:01:49.093Z,84.19
2023-07-14T13:04:19.649Z,83.51
2023-07-14T13:06:49.828Z,83.35
2023-07-14T13:09:23.386Z,81.80
2023-07-14T13:11:54.115Z,82.33
2023-07-14T13:14:23.917Z,82.45
2023-07-14T13:16:54.172Z,80.44
2023-07-14T13:19:28.508Z,80.74
2023-07-14T13:22:01.566Z,82.32
2023-07-14T13:24:31.967Z,80.96
2023-07-14T13:27:04.008Z,80.26
2023-07-14T13:29:38.375Z,79.77
2023-07-14T13:32:19.427Z,81.62
2023-07-14T13:34:52.180Z,82.19
2023-07-14T13:37:20.969Z,81.99
2023-07-14T13:39:56.709Z,83.26
2023-07-14T13:42:30.662Z,84.74
2023-07-14T13:45:01.535Z,83.86
2023-07-14T13:47:44.929Z,83.76
2023-07-14T13:50:13.626Z,84.13
2023-07-14T13:52:42.167Z,84.56
2023-07-14T13:55:16.229Z,83.44
2023-07-14T13:57:49.298Z,83.24
2023-07-14T14:00:21.698Z,83.73
2023-07-14T14:02:51.543Z,85.67
2023-07-14T14:05:22.503Z,85.08
2023-07-14T14:07:53.166Z,85.23
2023-07-14T14:10:23.676Z,85.14
2023-07-14T14:12:54.578Z,85.85
2023-07-14T14:15:24.497Z,85.70
2023-07-14T14:17:57.894Z,85.52
2023-07-14T14:20:28.345Z,85.31
2023-07-14T14:22:57.288Z,86.09
2023-07-14T14:25:27.717Z,86.88
2023-07-14T14:27:58.360Z,86.80
2023-07-14T14:30:43.565Z,86.77
2023-07-14T14:33:15.082Z,85.62
2023-07-14T14:35:43.808Z,85.93
2023-07-14T14:38:27.440Z,86.31
2023-07-14T14:41:14.268Z,87.08
2023-07-14T14:43:45.087Z,85.74
2023-07-14T14:46:13.533Z,84.66
2023-07-14T14:48:42.942Z,84.85
2023-07-14T14:51:14.208Z,85.76
2023-07-14T14:53:43.738Z,84.81
2023-07-14T14:56:21.054Z,85.13
2023-07-14T14:58:54.456Z,85.71
2023-07-14T15:01:28.809Z,86.63
2023-07-14T15:03:57.168Z,86.92
2023-07-14T15:06:26.213Z,87.31
2023-07-14T15:08:54.789Z,87.89
2023-07-14T15:11:23.288Z,87.77
2023-07-14T15:13:53.098Z,88.32
2023-07-14T15:16:21.504Z,87.62
2023-07-14T15:18:50.344Z,88.60
2023-07-14T15:21:21.550Z,89.25
2023-07-14T15:23:51.578Z,88.48
2023-07-14T15:26:21.744Z,88.46
2023-07-14T15:28:50.664Z,88.39
2023-07-14T15:31:20.891Z,86.77
2023-07-14T15:33:50.267Z,87.96
2023-07-14T15:36:19.828Z,88.44
2023-07-14T15:38:48.715Z,86.97
2023-07-14T15:41:20.608Z,87.32
2023-07-14T15:43:51.938Z,88.02
2023-07-14T15:46:23.874Z,87.38
2023-07-14T15:48:55.031Z,87.10
2023-07-14T15:51:27.140Z,87.17
2023-07-14T15:53:57.533Z,88.79
2023-07-14T15:56:27.237Z,88.70
2023-07-14T15:58:55.875Z,88.64
2023-07-14T16:01:30.627Z,89.30
2023-07-14T16:04:01.135Z,89.10
2023-07-14T16:06:31.389Z,88.38
2023-07-14T16:09:00.381Z,87.60
2023-07-14T16:11:31.044Z,88.16
2023-07-14T16:14:01.521Z,87.99
2023-07-14T16:16:32.080Z,88.88
2023-07-14T16:19:01.221Z,88.92
2023-07-14T16:21:31.351Z,88.88
2023-07-14T16:24:01.659Z,88.99
2023-07-14T16:26:30.687Z,89.40
2023-07-14T16:28:59.129Z,89.51
2023-07-14T16:31:27.947Z,89.71
2023-07-14T16:33:57.851Z,89.92
2023-07-14T16:36:29.840Z,89.88
2023-07-14T16:39:02.653Z,91.03
2023-07-14T16:41:31.605Z,90.81
2023-07-14T16:44:00.007Z,91.28
2023-07-14T16:46:32.714Z,91.77
2023-07-14T16:49:03.289Z,90.76
2023-07-14T16:51:31.658Z,91.23
2023-07-14T16:54:01.242Z,92.13
2023-07-14T16:56:29.734Z,92.25
2023-07-14T16:58:58.268Z,92.11
2023-07-14T17:01:26.850Z,92.80
2023-07-14T17:03:55.920Z,92.96
2023-07-14T17:06:42.117Z,93.20
2023-07-14T17:09:18.040Z,93.05
2023-07-14T17:11:46.552Z,93.62
2023-07-14T17:14:17.681Z,95.07
2023-07-14T17:16:46.258Z,94.78
2023-07-14T17:19:16.407Z,95.55
2023-07-14T17:21:48.387Z,95.64
2023-07-14T17:24:19.654Z,95.94
2023-07-14T17:26:48.299Z,96.40
2023-07-14T17:29:25.414Z,96.85
2023-07-14T17:31:54.731Z,98.36
2023-07-14T17:34:23.258Z,99.09
2023-07-14T17:36:53.224Z,99.83
2023-07-14T17:39:39.795Z,100.00
2023-07-14T17:42:18.129Z,100.00
2023-07-14T17:44:46.514Z,100.00
2023-07-14T17:47:14.926Z,100.00
2023-07-14T17:49:43.853Z,100.00
2023-07-14T17:52:16.956Z,100.00
2023-07-14T17:54:46.218Z,100.00
2023-07-14T17:57:17.284Z,100.00
2023-07-14T17:59:51.787Z,100.00
2023-07-14T18:02:26.599Z,100.00
2023-07-14T18:04:55.275Z,100.00
2023-07-14T18:07:25.341Z,100.00
2023-07-14T18:09:53.926Z,100.00
2023-07-14T18:12:23.058Z,100.00
2023-07-14T18:14:51.707Z,100.00
2023-07-14T18:17:20.525Z,100.00
2023-07-14T18:19:50.175Z,100.00
2023-07-14T18:22:27.944Z,100.00
2023-07-14T18:24:57.690Z,100.00
2023-07-14T18:27:26.360Z,100.00
2023-07-14T18:29:56.208Z,100.00
2023-07-14T18:32:24.930Z,100.00
2023-07-14T18:34:53.372Z,100.00
2023-07-14T18:37:21.888Z,100.00
2023-07-14T18:39:52.684Z,100.00
2023-07-14T18:42:25.395Z,100.00
2023-07-14T18:44:54.268Z,100.00
2023-07-14T18:47:23.465Z,100.00
2023-07-14T18:49:53.160Z,100.00
2023-07-14T18:52:22.008Z,100.00
2023-07-14T18:54:51.773Z,100.00
2023-07-14T18:57:20.998Z,100.00
2023-07-14T18:59:50.145Z,100.00
2023-07-14T19:02:34.072Z,100.00
2023-07-14T19:05:09.340Z,100.00
2023-07-14T19:07:38.078Z,100.00
2023-07-14T19:10:13.267Z,100.00
2023-07-14T19:12:41.974Z,100.00
2023-07-14T19:15:19.530Z,100.00
2023-07-14T19:17:48.828Z,100.00
2023-07-14T19:20:20.141Z,100.00
2023-07-14T19:22:50.267Z,100.00
2023-07-14T19:25:21.676Z,100.00
2023-07-14T19:27:50.727Z,100.00
2023-07-14T19:30:23.134Z,100.00
2023-07-14T19:32:58.022Z,100.00
2023-07-14T19:35:26.910Z,100.00
2023-07-14T19:37:55.245Z,100.00
2023-07-14T19:40:27.097Z,100.00
2023-07-14T19:42:56.064Z,100.00
2023-07-14T19:45:26.195Z,100.00
2023-07-14T19:47:54.924Z,100.00
2023-07-14T19:50:24.390Z,100.00
2023-07-14T19:52:52.915Z,100.00
2023-07-14T19:55:25.454Z,100.00
2023-07-14T19:57:53.965Z,100.00
2023-07-14T20:00:24.281Z,100.00
2023-07-14T20:02:53.485Z,100.00
2023-07-14T20:05:25.780Z,100.00
2023-07-14T20:07:55.084Z,100.00
2023-07-14T20:10:25.078Z,100.00
2023-07-14T20:12:54.158Z,100.00
2023-07-14T20:15:25.268Z,100.00
2023-07-14T20:17:54.418Z,100.00
2023-07-14T20:20:23.010Z,100.00
2023-07-14T20:22:53.280Z,100.00
2023-07-14T20:25:23.464Z,100.00
2023-07-14T20:27:53.490Z,100.00
2023-07-14T20:30:24.336Z,100.00
2023-07-14T20:32:53.517Z,100.00
2023-07-14T20:35:25.724Z,100.00
2023-07-14T20:37:54.449Z,100.00
2023-07-14T20:40:23.175Z,100.00
2023-07-14T20:42:52.905Z,100.00
2023-07-14T20:45:23.300Z,100.00
2023-07-14T20:47:51.942Z,100.00
2023-07-14T20:50:22.525Z,100.00
2023-07-14T20:52:53.166Z,100.00
2023-07-14T20:55:28.676Z,100.00
2023-07-14T20:57:59.393Z,100.00
2023-07-14T21:00:27.859Z,100.00
2023-07-14T21:02:56.349Z,100.00
2023-07-14T21:05:25.186Z,100.00
2023-07-14T21:07:53.696Z,100.00
2023-07-14T21:10:23.024Z,100.00
2023-07-14T21:12:51.607Z,100.00
2023-07-14T21:15:21.416Z,100.00
2023-07-14T21:17:49.851Z,100.00
2023-07-14T21:20:18.519Z,100.00
2023-07-14T21:22:46.945Z,100.00
2023-07-14T21:25:17.186Z,100.00
2023-07-14T21:27:46.706Z,100.00
2023-07-14T21:30:15.777Z,100.00
2023-07-14T21:32:45.616Z,100.00
2023-07-14T21:35:19.482Z,100.00
2023-07-14T21:37:48.743Z,100.00
2023-07-14T21:40:18.686Z,100.00
2023-07-14T21:42:50.757Z,100.00
2023-07-14T21:45:20.750Z,100.00
2023-07-14T21:47:50.748Z,100.00
2023-07-14T21:50:19.359Z,100.00
2023-07-14T21:52:53.353Z,100.00
2023-07-14T21:55:21.933Z,100.00
2023-07-14T21:57:50.948Z,100.00
2023-07-14T22:00:20.428Z,100.00
2023-07-14T22:02:50.277Z,100.00
2023-07-14T22:05:19.338Z,100.00
2023-07-14T22:07:47.720Z,100.00
2023-07-14T22:10:18.458Z,100.00
2023-07-14T22:12:50.107Z,100.00
2023-07-14T22:15:23.776Z,100.00
2023-07-14T22:17:53.794Z,100.00
2023-07-14T22:20:22.493Z,100.00
2023-07-14T22:22:51.020Z,100.00
2023-07-14T22:25:19.715Z,100.00
2023-07-14T22:27:48.575Z,100.00
2023-07-14T22:30:17.579Z,100.00
2023-07-14T22:32:47.501Z,100.00
2023-07-14T22:35:19.089Z,100.00
2023-07-14T22:37:47.904Z,100.00
2023-07-14T22:40:17.523Z,100.00
2023-07-14T22:42:46.445Z,100.00
2023-07-14T22:45:16.276Z,100.00
2023-07-14T22:47:45.543Z,100.00
2023-07-14T22:50:17.271Z,100.00
2023-07-14T22:52:46.231Z,100.00
2023-07-14T22:55:18.195Z,100.00
2023-07-14T22:57:47.734Z,100.00
2023-07-14T23:00:18.436Z,100.00
2023-07-14T23:02:47.765Z,100.00
2023-07-14T23:05:19.391Z,100.00
2023-07-14T23:07:49.286Z,100.00
2023-07-14T23:10:18.604Z,100.00
2023-07-14T23:12:49.670Z,100.00
2023-07-14T23:15:19.970Z,100.00
2023-07-14T23:17:48.447Z,100.00
2023-07-14T23:20:18.584Z,100.00
2023-07-14T23:22:47.385Z,100.00
2023-07-14T23:25:20.827Z,100.00
2023-07-14T23:27:49.656Z,100.00
2023-07-14T23:30:18.044Z,100.00
2023-07-14T23:32:46.607Z,100.00
2023-07-14T23:35:20.111Z,100.00
2023-07-14T23:37:48.754Z,100.00
2023-07-14T23:40:19.223Z,100.00
2023-07-14T23:42:49.892Z,100.00
2023-07-14T23:45:23.399Z,100.00
2023-07-14T23:47:51.944Z,100.00
2023-07-14T23:50:22.651Z,100.00
2023-07-14T23:52:51.151Z,100.00
2023-07-14T23:55:23.084Z,100.00
2023-07-14T23:57:51.619Z,100.00
